Dades meteomassalio
Diari Summary for Gener 22, 2018 Units:  Both    English   Metric
« Previous Day
Next Day »
Diari Semanal Mensual Anual Personalitzat
  Maxima: Minima: Mijana:
Temperatura: TemperatureC °F /  -17.8 °C 5.6 °F /  -14.7 °C 13.1 °F /  -10.5 °C
Rosada: DewpointC °F /  -17.8 °C 2.0 °F /  -16.7 °C 6.7 °F /  -14.1 °C
Humitat: Humidity % 51 % 66 %
Velocitat del vent: WindSpeedKMH mph /  0 km/h - 26.2 mph /  42.2 km/h
Racha vent: WindSpeedGustKMH mph /  0 km/h - -
Vent:- - NW
Pressio: PressurehPa in /  0 hPa 1027.0 in /  34774.2 hPa -
Pluja: 0.0 in /  0 mm    
Historical Graphs
 
 
Tabular Data for Gener 22, 2018
Time Temperature Dew Point Pressure Wind Wind Speed Wind Gust Humidity Rainfall Rate (Hourly) solar Conditions
TemperatureC °F /  -17.8 °C DewpointC °F /  -17.8 °C PressurehPa in /  0 hPa Calm     Humidity % HourlyPrecipMM in /  0 mm SolarRadiationWatts/m^2 W/m2 Conditions
00:05 13.3 °F /  -10.4 °C 8.2 °F /  -13.2 °C 1029.0 in /  34841.9 hPa WNW 22.2 mph /  35.7 km/h 22.2 mph /  35.7 km/h 71 % 0.0 in /  0 mm 0.0 W/m2 CLR
00:10 13.3 °F /  -10.4 °C 8.2 °F /  -13.2 °C 1029.0 in /  34841.9 hPa NW 29.0 mph /  46.7 km/h 29.0 mph /  46.7 km/h 71 % 0.0 in /  0 mm 0.0 W/m2 CLR
00:15 13.3 °F /  -10.4 °C 8.2 °F /  -13.2 °C 1029.0 in /  34841.9 hPa WNW 31.5 mph /  50.7 km/h 31.5 mph /  50.7 km/h 71 % 0.0 in /  0 mm 0.0 W/m2 CLR
00:20 13.3 °F /  -10.4 °C 8.2 °F /  -13.2 °C 1029.0 in /  34841.9 hPa NNW 22.5 mph /  36.2 km/h 22.5 mph /  36.2 km/h 71 % 0.0 in /  0 mm 0.0 W/m2 CLR
00:25 13.3 °F /  -10.4 °C 8.2 °F /  -13.2 °C 1029.0 in /  34841.9 hPa NW 25.9 mph /  41.7 km/h 25.9 mph /  41.7 km/h 71 % 0.0 in /  0 mm 0.0 W/m2 CLR
00:30 13.3 °F /  -10.4 °C 8.2 °F /  -13.2 °C 1029.0 in /  34841.9 hPa NW 31.5 mph /  50.7 km/h 31.5 mph /  50.7 km/h 71 % 0.0 in /  0 mm 0.0 W/m2 CLR
00:35 13.3 °F /  -10.4 °C 8.2 °F /  -13.2 °C 1029.0 in /  34841.9 hPa NW 29.6 mph /  47.6 km/h 29.6 mph /  47.6 km/h 71 % 0.0 in /  0 mm 0.0 W/m2 CLR
00:46 13.3 °F /  -10.4 °C 8.2 °F /  -13.2 °C 1029.0 in /  34841.9 hPa NW 35.2 mph /  56.6 km/h 35.2 mph /  56.6 km/h 71 % 0.0 in /  0 mm 0.0 W/m2 CLR
00:51 13.3 °F /  -10.4 °C 8.2 °F /  -13.2 °C 1029.0 in /  34841.9 hPa NW 32.2 mph /  51.8 km/h 32.2 mph /  51.8 km/h 71 % 0.0 in /  0 mm 0.0 W/m2 CLR
00:56 13.3 °F /  -10.4 °C 8.2 °F /  -13.2 °C 1029.0 in /  34841.9 hPa NNW 31.5 mph /  50.7 km/h 31.5 mph /  50.7 km/h 71 % 0.0 in /  0 mm 0.0 W/m2 CLR
01:01 13.3 °F /  -10.4 °C 8.2 °F /  -13.2 °C 1028.7 in /  34831.8 hPa NW 29.6 mph /  47.6 km/h 29.6 mph /  47.6 km/h 71 % 0.0 in /  0 mm 0.0 W/m2 CLR
01:06 13.3 °F /  -10.4 °C 8.2 °F /  -13.2 °C 1029.0 in /  34841.9 hPa NW 24.1 mph /  38.8 km/h 24.1 mph /  38.8 km/h 71 % 0.0 in /  0 mm 0.0 W/m2 CLR
01:12 13.3 °F /  -10.4 °C 8.2 °F /  -13.2 °C 1029.0 in /  34841.9 hPa NW 24.1 mph /  38.8 km/h 24.1 mph /  38.8 km/h 71 % 0.0 in /  0 mm 0.0 W/m2 CLR
01:16 13.3 °F /  -10.4 °C 8.2 °F /  -13.2 °C 1028.7 in /  34831.8 hPa NW 31.5 mph /  50.7 km/h 31.5 mph /  50.7 km/h 71 % 0.0 in /  0 mm 0.0 W/m2 CLR
01:22 13.3 °F /  -10.4 °C 8.2 °F /  -13.2 °C 1028.7 in /  34831.8 hPa NW 24.1 mph /  38.8 km/h 24.1 mph /  38.8 km/h 71 % 0.0 in /  0 mm 0.0 W/m2 CLR
01:27 13.3 °F /  -10.4 °C 8.0 °F /  -13.3 °C 1028.7 in /  34831.8 hPa NW 24.1 mph /  38.8 km/h 24.1 mph /  38.8 km/h 70 % 0.0 in /  0 mm 0.0 W/m2 CLR
01:32 13.3 °F /  -10.4 °C 8.0 °F /  -13.3 °C 1028.7 in /  34831.8 hPa NW 24.1 mph /  38.8 km/h 24.1 mph /  38.8 km/h 70 % 0.0 in /  0 mm 0.0 W/m2 CLR
01:37 13.3 °F /  -10.4 °C 8.0 °F /  -13.3 °C 1028.7 in /  34831.8 hPa WNW 20.4 mph /  32.8 km/h 20.4 mph /  32.8 km/h 70 % 0.0 in /  0 mm 0.0 W/m2 CLR
01:42 13.3 °F /  -10.4 °C 8.2 °F /  -13.2 °C 1028.7 in /  34831.8 hPa NW 22.2 mph /  35.7 km/h 22.2 mph /  35.7 km/h 71 % 0.0 in /  0 mm 0.0 W/m2 CLR
01:47 12.8 °F /  -10.7 °C 7.7 °F /  -13.5 °C 1028.7 in /  34831.8 hPa WNW 25.9 mph /  41.7 km/h 25.9 mph /  41.7 km/h 71 % 0.0 in /  0 mm 0.0 W/m2 CLR
01:52 12.8 °F /  -10.7 °C 7.4 °F /  -13.7 °C 1028.7 in /  34831.8 hPa WNW 20.4 mph /  32.8 km/h 20.4 mph /  32.8 km/h 70 % 0.0 in /  0 mm 0.0 W/m2 CLR
01:57 12.8 °F /  -10.7 °C 7.4 °F /  -13.7 °C 1028.7 in /  34831.8 hPa NW 31.5 mph /  50.7 km/h 31.5 mph /  50.7 km/h 70 % 0.0 in /  0 mm 0.0 W/m2 CLR
02:02 12.8 °F /  -10.7 °C 7.4 °F /  -13.7 °C 1028.3 in /  34818.2 hPa NW 19.3 mph /  31.1 km/h 19.3 mph /  31.1 km/h 70 % 0.0 in /  0 mm 0.0 W/m2 CLR
02:07 13.3 °F /  -10.4 °C 8.0 °F /  -13.3 °C 1028.7 in /  34831.8 hPa NW 29.6 mph /  47.6 km/h 29.6 mph /  47.6 km/h 70 % 0.0 in /  0 mm 0.0 W/m2 CLR
02:12 13.3 °F /  -10.4 °C 8.0 °F /  -13.3 °C 1028.7 in /  34831.8 hPa WNW 25.9 mph /  41.7 km/h 25.9 mph /  41.7 km/h 70 % 0.0 in /  0 mm 0.0 W/m2 CLR
02:17 12.8 °F /  -10.7 °C 7.4 °F /  -13.7 °C 1028.7 in /  34831.8 hPa WNW 22.5 mph /  36.2 km/h 22.5 mph /  36.2 km/h 70 % 0.0 in /  0 mm 0.0 W/m2 CLR
02:22 12.8 °F /  -10.7 °C 7.4 °F /  -13.7 °C 1028.7 in /  34831.8 hPa WNW 13.0 mph /  20.9 km/h 13.0 mph /  20.9 km/h 70 % 0.0 in /  0 mm 0.0 W/m2 CLR
02:27 12.8 °F /  -10.7 °C 7.7 °F /  -13.5 °C 1028.7 in /  34831.8 hPa WNW 18.5 mph /  29.8 km/h 18.5 mph /  29.8 km/h 71 % 0.0 in /  0 mm 0.0 W/m2 CLR
02:32 12.8 °F /  -10.7 °C 7.7 °F /  -13.5 °C 1028.7 in /  34831.8 hPa WNW 11.1 mph /  17.9 km/h 11.1 mph /  17.9 km/h 71 % 0.0 in /  0 mm 0.0 W/m2 CLR
02:37 12.8 °F /  -10.7 °C 7.7 °F /  -13.5 °C 1028.7 in /  34831.8 hPa WNW 11.1 mph /  17.9 km/h 11.1 mph /  17.9 km/h 71 % 0.0 in /  0 mm 0.0 W/m2 CLR
02:42 12.2 °F /  -11 °C 7.1 °F /  -13.8 °C 1028.7 in /  34831.8 hPa WSW 4.8 mph /  7.7 km/h 4.8 mph /  7.7 km/h 71 % 0.0 in /  0 mm 0.0 W/m2 CLR
02:47 12.2 °F /  -11 °C 7.3 °F /  -13.7 °C 1028.7 in /  34831.8 hPa West 7.4 mph /  11.9 km/h 7.4 mph /  11.9 km/h 72 % 0.0 in /  0 mm 0.0 W/m2 CLR
02:52 11.7 °F /  -11.3 °C 6.8 °F /  -14 °C 1028.7 in /  34831.8 hPa West 5.6 mph /  9 km/h 5.6 mph /  9 km/h 72 % 0.0 in /  0 mm 0.0 W/m2 CLR
02:57 11.1 °F /  -11.6 °C 6.4 °F /  -14.2 °C 1028.7 in /  34831.8 hPa Calm     73 % 0.0 in /  0 mm 0.0 W/m2 CLR
03:02 11.1 °F /  -11.6 °C 6.4 °F /  -14.2 °C 1028.7 in /  34831.8 hPa WNW 13.0 mph /  20.9 km/h 13.0 mph /  20.9 km/h 73 % 0.0 in /  0 mm 0.0 W/m2 CLR
03:07 11.7 °F /  -11.3 °C 7.0 °F /  -13.9 °C 1028.7 in /  34831.8 hPa Calm     73 % 0.0 in /  0 mm 0.0 W/m2 CLR
03:12 11.7 °F /  -11.3 °C 7.2 °F /  -13.8 °C 1028.7 in /  34831.8 hPa Calm     74 % 0.0 in /  0 mm 0.0 W/m2 CLR
03:17 11.1 °F /  -11.6 °C 6.8 °F /  -14 °C 1028.7 in /  34831.8 hPa West 18.5 mph /  29.8 km/h 18.5 mph /  29.8 km/h 75 % 0.0 in /  0 mm 0.0 W/m2 CLR
03:22 10.6 °F /  -11.9 °C 6.1 °F /  -14.4 °C 1028.7 in /  34831.8 hPa Calm     74 % 0.0 in /  0 mm 0.0 W/m2 CLR
03:27 10.6 °F /  -11.9 °C 6.1 °F /  -14.4 °C 1028.7 in /  34831.8 hPa Calm     74 % 0.0 in /  0 mm 0.0 W/m2 CLR
03:37 10.0 °F /  -12.2 °C 5.8 °F /  -14.6 °C 1028.7 in /  34831.8 hPa WNW 7.4 mph /  11.9 km/h 7.4 mph /  11.9 km/h 75 % 0.0 in /  0 mm 0.0 W/m2 CLR
03:47 10.6 °F /  -11.9 °C 6.1 °F /  -14.4 °C 1028.7 in /  34831.8 hPa NW 25.9 mph /  41.7 km/h 25.9 mph /  41.7 km/h 74 % 0.0 in /  0 mm 0.0 W/m2 CLR
03:52 11.1 °F /  -11.6 °C 6.7 °F /  -14.1 °C 1028.7 in /  34831.8 hPa WNW 25.9 mph /  41.7 km/h 25.9 mph /  41.7 km/h 74 % 0.0 in /  0 mm 0.0 W/m2 CLR
04:02 11.1 °F /  -11.6 °C 6.4 °F /  -14.2 °C 1028.7 in /  34831.8 hPa West 13.0 mph /  20.9 km/h 13.0 mph /  20.9 km/h 73 % 0.0 in /  0 mm 0.0 W/m2 CLR
04:07 11.1 °F /  -11.6 °C 6.7 °F /  -14.1 °C 1028.7 in /  34831.8 hPa WSW 18.5 mph /  29.8 km/h 18.5 mph /  29.8 km/h 74 % 0.0 in /  0 mm 0.0 W/m2 CLR
04:12 11.1 °F /  -11.6 °C 6.7 °F /  -14.1 °C 1028.7 in /  34831.8 hPa West 1.9 mph /  3.1 km/h 1.9 mph /  3.1 km/h 74 % 0.0 in /  0 mm 0.0 W/m2 CLR
04:17 11.1 °F /  -11.6 °C 6.8 °F /  -14 °C 1028.7 in /  34831.8 hPa WNW 16.7 mph /  26.9 km/h 16.7 mph /  26.9 km/h 75 % 0.0 in /  0 mm 0.0 W/m2 CLR
04:22 10.6 °F /  -11.9 °C 6.3 °F /  -14.3 °C 1028.7 in /  34831.8 hPa WNW 29.6 mph /  47.6 km/h 29.6 mph /  47.6 km/h 75 % 0.0 in /  0 mm 0.0 W/m2 CLR
04:27 10.6 °F /  -11.9 °C 6.3 °F /  -14.3 °C 1028.7 in /  34831.8 hPa NW 18.5 mph /  29.8 km/h 18.5 mph /  29.8 km/h 75 % 0.0 in /  0 mm 0.0 W/m2 CLR
04:42 10.6 °F /  -11.9 °C 6.5 °F /  -14.2 °C 1028.7 in /  34831.8 hPa WNW 9.3 mph /  15 km/h 9.3 mph /  15 km/h 76 % 0.0 in /  0 mm 0.0 W/m2 CLR
04:47 10.6 °F /  -11.9 °C 6.5 °F /  -14.2 °C 1028.7 in /  34831.8 hPa West 18.5 mph /  29.8 km/h 18.5 mph /  29.8 km/h 76 % 0.0 in /  0 mm 0.0 W/m2 CLR
04:52 11.1 °F /  -11.6 °C 7.1 °F /  -13.8 °C 1028.7 in /  34831.8 hPa WNW 14.8 mph /  23.8 km/h 14.8 mph /  23.8 km/h 76 % 0.0 in /  0 mm 0.0 W/m2 CLR
04:57 10.6 °F /  -11.9 °C 6.5 °F /  -14.2 °C 1028.3 in /  34818.2 hPa NW 18.5 mph /  29.8 km/h 18.5 mph /  29.8 km/h 76 % 0.0 in /  0 mm 0.0 W/m2 CLR
05:07 10.6 °F /  -11.9 °C 6.3 °F /  -14.3 °C 1028.3 in /  34818.2 hPa WNW 20.4 mph /  32.8 km/h 20.4 mph /  32.8 km/h 75 % 0.0 in /  0 mm 0.0 W/m2 CLR
05:12 10.6 °F /  -11.9 °C 6.3 °F /  -14.3 °C 1028.3 in /  34818.2 hPa West 25.9 mph /  41.7 km/h 25.9 mph /  41.7 km/h 75 % 0.0 in /  0 mm 0.0 W/m2 CLR
05:17 10.6 °F /  -11.9 °C 6.3 °F /  -14.3 °C 1028.3 in /  34818.2 hPa West 24.1 mph /  38.8 km/h 24.1 mph /  38.8 km/h 75 % 0.0 in /  0 mm 0.0 W/m2 CLR
05:22 11.1 °F /  -11.6 °C 6.8 °F /  -14 °C 1028.7 in /  34831.8 hPa WNW 25.9 mph /  41.7 km/h 25.9 mph /  41.7 km/h 75 % 0.0 in /  0 mm 0.0 W/m2 CLR
05:32 11.1 °F /  -11.6 °C 6.7 °F /  -14.1 °C 1028.7 in /  34831.8 hPa WNW 22.2 mph /  35.7 km/h 22.2 mph /  35.7 km/h 74 % 0.0 in /  0 mm 0.0 W/m2 CLR
05:37 11.1 °F /  -11.6 °C 6.7 °F /  -14.1 °C 1028.7 in /  34831.8 hPa WNW 22.2 mph /  35.7 km/h 22.2 mph /  35.7 km/h 74 % 0.0 in /  0 mm 0.0 W/m2 CLR
05:42 11.1 °F /  -11.6 °C 6.7 °F /  -14.1 °C 1028.3 in /  34818.2 hPa NW 24.1 mph /  38.8 km/h 24.1 mph /  38.8 km/h 74 % 0.0 in /  0 mm 0.0 W/m2 CLR
05:47 11.1 °F /  -11.6 °C 6.7 °F /  -14.1 °C 1028.7 in /  34831.8 hPa WNW 24.1 mph /  38.8 km/h 24.1 mph /  38.8 km/h 74 % 0.0 in /  0 mm 0.0 W/m2 CLR
05:57 10.6 °F /  -11.9 °C 6.1 °F /  -14.4 °C 1028.3 in /  34818.2 hPa West 1.9 mph /  3.1 km/h   74 % 0.0 in /  0 mm 0.0 W/m2 CLR
06:02 10.6 °F /  -11.9 °C 6.3 °F /  -14.3 °C 1028.3 in /  34818.2 hPa WNW 18.5 mph /  29.8 km/h 18.5 mph /  29.8 km/h 75 % 0.0 in /  0 mm 0.0 W/m2 CLR
06:07 10.6 °F /  -11.9 °C 6.1 °F /  -14.4 °C 1028.3 in /  34818.2 hPa NW 24.1 mph /  38.8 km/h 24.1 mph /  38.8 km/h 74 % 0.0 in /  0 mm 0.0 W/m2 CLR
06:12 10.6 °F /  -11.9 °C 5.9 °F /  -14.5 °C 1028.3 in /  34818.2 hPa NNW 31.5 mph /  50.7 km/h 31.5 mph /  50.7 km/h 73 % 0.0 in /  0 mm 0.0 W/m2 CLR
06:17 11.1 °F /  -11.6 °C 6.4 °F /  -14.2 °C 1028.7 in /  34831.8 hPa NW 22.2 mph /  35.7 km/h 22.2 mph /  35.7 km/h 73 % 0.0 in /  0 mm 0.0 W/m2 CLR
06:37 10.6 °F /  -11.9 °C 5.9 °F /  -14.5 °C 1028.3 in /  34818.2 hPa West 13.0 mph /  20.9 km/h 13.0 mph /  20.9 km/h 73 % 0.0 in /  0 mm 0.0 W/m2 CLR
06:42 10.6 °F /  -11.9 °C 6.1 °F /  -14.4 °C 1028.7 in /  34831.8 hPa Calm     74 % 0.0 in /  0 mm 0.0 W/m2 CLR
06:47 10.0 °F /  -12.2 °C 5.6 °F /  -14.7 °C 1028.7 in /  34831.8 hPa WSW 5.6 mph /  9 km/h 5.6 mph /  9 km/h 74 % 0.0 in /  0 mm 0.0 W/m2 CLR
06:52 9.4 °F /  -12.6 °C 5.1 °F /  -14.9 °C 1028.3 in /  34818.2 hPa West 3.7 mph /  6 km/h   74 % 0.0 in /  0 mm 0.0 W/m2 CLR
07:02 8.9 °F /  -12.8 °C 4.7 °F /  -15.2 °C 1028.7 in /  34831.8 hPa Calm     75 % 0.0 in /  0 mm 0.0 W/m2 CLR
07:07 8.9 °F /  -12.8 °C 4.7 °F /  -15.2 °C 1028.3 in /  34818.2 hPa Calm     75 % 0.0 in /  0 mm 0.0 W/m2 CLR
07:12 8.3 °F /  -13.2 °C 4.3 °F /  -15.4 °C 1028.3 in /  34818.2 hPa Calm     76 % 0.0 in /  0 mm 0.0 W/m2 CLR
07:17 7.8 °F /  -13.4 °C 3.8 °F /  -15.7 °C 1028.3 in /  34818.2 hPa Calm     76 % 0.0 in /  0 mm 0.0 W/m2 CLR
07:22 8.3 °F /  -13.2 °C 4.3 °F /  -15.4 °C 1028.3 in /  34818.2 hPa Calm     76 % 0.0 in /  0 mm 0.0 W/m2 CLR
07:27 7.8 °F /  -13.4 °C 3.8 °F /  -15.7 °C 1028.3 in /  34818.2 hPa Calm     76 % 0.0 in /  0 mm 0.0 W/m2 CLR
07:32 7.2 °F /  -13.8 °C 3.4 °F /  -15.9 °C 1028.3 in /  34818.2 hPa Calm     77 % 0.0 in /  0 mm 0.0 W/m2 CLR
07:38 7.2 °F /  -13.8 °C 3.7 °F /  -15.7 °C 1028.3 in /  34818.2 hPa Calm     78 % 0.0 in /  0 mm 0.0 W/m2 CLR
07:43 6.7 °F /  -14.1 °C 3.1 °F /  -16.1 °C 1028.3 in /  34818.2 hPa Calm     78 % 0.0 in /  0 mm 0.0 W/m2 CLR
07:48 6.1 °F /  -14.4 °C 2.6 °F /  -16.3 °C 1028.3 in /  34818.2 hPa Calm     78 % 0.0 in /  0 mm 0.0 W/m2 CLR
07:53 6.1 °F /  -14.4 °C 2.6 °F /  -16.3 °C 1028.3 in /  34818.2 hPa Calm   0.5 mph /  0.8 km/h 78 % 0.0 in /  0 mm 0.0 W/m2 CLR
07:58 5.6 °F /  -14.7 °C 2.0 °F /  -16.7 °C 1028.3 in /  34818.2 hPa WSW 3.7 mph /  6 km/h 3.7 mph /  6 km/h 78 % 0.0 in /  0 mm 0.0 W/m2 CLR
08:03 5.6 °F /  -14.7 °C 2.0 °F /  -16.7 °C 1028.3 in /  34818.2 hPa WSW 3.7 mph /  6 km/h 3.7 mph /  6 km/h 78 % 0.0 in /  0 mm 0.0 W/m2 CLR
08:08 5.6 °F /  -14.7 °C 2.2 °F /  -16.6 °C 1028.3 in /  34818.2 hPa WSW 5.6 mph /  9 km/h 5.6 mph /  9 km/h 79 % 0.0 in /  0 mm 0.0 W/m2 OVC
08:13 5.6 °F /  -14.7 °C 2.2 °F /  -16.6 °C 1028.3 in /  34818.2 hPa WNW 9.3 mph /  15 km/h 9.3 mph /  15 km/h 79 % 0.0 in /  0 mm 0.0 W/m2 OVC
08:23 6.1 °F /  -14.4 °C 2.7 °F /  -16.3 °C 1028.3 in /  34818.2 hPa West 7.4 mph /  11.9 km/h 7.4 mph /  11.9 km/h 79 % 0.0 in /  0 mm 7.0 W/m2 BKN
08:28 6.7 °F /  -14.1 °C 3.3 °F /  -15.9 °C 1028.3 in /  34818.2 hPa West 11.1 mph /  17.9 km/h 11.1 mph /  17.9 km/h 79 % 0.0 in /  0 mm 9.0 W/m2 BKN
08:33 7.8 °F /  -13.4 °C 4.4 °F /  -15.3 °C 1028.3 in /  34818.2 hPa West 14.8 mph /  23.8 km/h 14.8 mph /  23.8 km/h 79 % 0.0 in /  0 mm 11.0 W/m2 BKN
08:38 7.8 °F /  -13.4 °C 4.2 °F /  -15.4 °C 1028.7 in /  34831.8 hPa West 5.6 mph /  9 km/h 5.6 mph /  9 km/h 78 % 0.0 in /  0 mm 12.0 W/m2 BKN
08:43 7.8 °F /  -13.4 °C 4.2 °F /  -15.4 °C 1028.7 in /  34831.8 hPa West 9.3 mph /  15 km/h 9.3 mph /  15 km/h 78 % 0.0 in /  0 mm 14.0 W/m2 BKN
08:48 7.8 °F /  -13.4 °C 4.0 °F /  -15.6 °C 1028.7 in /  34831.8 hPa WSW 5.6 mph /  9 km/h 5.6 mph /  9 km/h 77 % 0.0 in /  0 mm 18.0 W/m2 BKN
08:53 8.9 °F /  -12.8 °C 5.1 °F /  -14.9 °C 1028.7 in /  34831.8 hPa West 8.0 mph /  12.9 km/h 8.0 mph /  12.9 km/h 77 % 0.0 in /  0 mm 28.0 W/m2 BKN
08:58 9.4 °F /  -12.6 °C 5.2 °F /  -14.9 °C 1028.7 in /  34831.8 hPa NW 7.4 mph /  11.9 km/h 7.4 mph /  11.9 km/h 75 % 0.0 in /  0 mm 37.0 W/m2 BKN
09:03 10.0 °F /  -12.2 °C 5.8 °F /  -14.6 °C 1028.7 in /  34831.8 hPa WSW 5.6 mph /  9 km/h 5.6 mph /  9 km/h 75 % 0.0 in /  0 mm 47.0 W/m2 SCT
09:08 10.6 °F /  -11.9 °C 6.1 °F /  -14.4 °C 1029.0 in /  34841.9 hPa Calm     74 % 0.0 in /  0 mm 56.0 W/m2 SCT
09:13 10.6 °F /  -11.9 °C 5.9 °F /  -14.5 °C 1029.0 in /  34841.9 hPa WSW 1.9 mph /  3.1 km/h 1.9 mph /  3.1 km/h 73 % 0.0 in /  0 mm 53.0 W/m2 SCT
09:18 10.6 °F /  -11.9 °C 5.9 °F /  -14.5 °C 1029.0 in /  34841.9 hPa Calm     73 % 0.0 in /  0 mm 74.0 W/m2 FEW
09:23 10.6 °F /  -11.9 °C 5.7 °F /  -14.6 °C 1029.0 in /  34841.9 hPa West 3.7 mph /  6 km/h 3.7 mph /  6 km/h 72 % 0.0 in /  0 mm 84.0 W/m2 FEW
09:28 10.6 °F /  -11.9 °C 5.5 °F /  -14.7 °C 1029.0 in /  34841.9 hPa WNW 5.6 mph /  9 km/h 5.6 mph /  9 km/h 71 % 0.0 in /  0 mm 97.0 W/m2 FEW
09:33 10.6 °F /  -11.9 °C 5.3 °F /  -14.8 °C 1029.0 in /  34841.9 hPa NW 14.8 mph /  23.8 km/h 14.8 mph /  23.8 km/h 70 % 0.0 in /  0 mm 127.0 W/m2 CLR
09:38 10.6 °F /  -11.9 °C 5.1 °F /  -14.9 °C 1029.0 in /  34841.9 hPa WNW 11.1 mph /  17.9 km/h 11.1 mph /  17.9 km/h 69 % 0.0 in /  0 mm 139.0 W/m2 CLR
09:48 11.1 °F /  -11.6 °C 5.4 °F /  -14.8 °C 1029.0 in /  34841.9 hPa NW 22.5 mph /  36.2 km/h 22.5 mph /  36.2 km/h 68 % 0.0 in /  0 mm 174.0 W/m2 CLR
09:53 11.7 °F /  -11.3 °C 5.7 °F /  -14.6 °C 1029.0 in /  34841.9 hPa West 20.4 mph /  32.8 km/h 20.4 mph /  32.8 km/h 67 % 0.0 in /  0 mm 188.0 W/m2 CLR
09:58 12.2 °F /  -11 °C 6.3 °F /  -14.3 °C 1029.0 in /  34841.9 hPa NW 18.5 mph /  29.8 km/h 18.5 mph /  29.8 km/h 67 % 0.0 in /  0 mm 148.0 W/m2 CLR
10:03 12.2 °F /  -11 °C 6.3 °F /  -14.3 °C 1029.0 in /  34841.9 hPa WNW 18.5 mph /  29.8 km/h 18.5 mph /  29.8 km/h 67 % 0.0 in /  0 mm 220.0 W/m2 CLR
10:13 12.8 °F /  -10.7 °C 6.6 °F /  -14.1 °C 1029.3 in /  34852.1 hPa NW 18.5 mph /  29.8 km/h 18.5 mph /  29.8 km/h 66 % 0.0 in /  0 mm 248.0 W/m2 CLR
10:18 12.8 °F /  -10.7 °C 6.6 °F /  -14.1 °C 1029.3 in /  34852.1 hPa NW 5.6 mph /  9 km/h 5.6 mph /  9 km/h 66 % 0.0 in /  0 mm 262.0 W/m2 CLR
10:23 12.8 °F /  -10.7 °C 6.6 °F /  -14.1 °C 1029.3 in /  34852.1 hPa WNW 8.0 mph /  12.9 km/h 8.0 mph /  12.9 km/h 66 % 0.0 in /  0 mm 274.0 W/m2 CLR
10:28 13.3 °F /  -10.4 °C 6.9 °F /  -13.9 °C 1029.3 in /  34852.1 hPa WNW 9.3 mph /  15 km/h 9.3 mph /  15 km/h 65 % 0.0 in /  0 mm 285.0 W/m2 CLR
10:33 13.3 °F /  -10.4 °C 6.9 °F /  -13.9 °C 1029.3 in /  34852.1 hPa NW 1.9 mph /  3.1 km/h 1.9 mph /  3.1 km/h 65 % 0.0 in /  0 mm 295.0 W/m2 CLR
10:38 13.3 °F /  -10.4 °C 6.4 °F /  -14.2 °C 1029.7 in /  34865.6 hPa NW 9.3 mph /  15 km/h 9.3 mph /  15 km/h 63 % 0.0 in /  0 mm 308.0 W/m2 CLR
10:43 13.9 °F /  -10.1 °C 6.9 °F /  -13.9 °C 1029.7 in /  34865.6 hPa NW 9.3 mph /  15 km/h 9.3 mph /  15 km/h 63 % 0.0 in /  0 mm 320.0 W/m2 CLR
10:48 13.9 °F /  -10.1 °C 6.5 °F /  -14.2 °C 1029.7 in /  34865.6 hPa WNW 24.1 mph /  38.8 km/h 24.1 mph /  38.8 km/h 61 % 0.0 in /  0 mm 329.0 W/m2 CLR
10:58 14.4 °F /  -9.8 °C 7.0 °F /  -13.9 °C 1029.7 in /  34865.6 hPa NW 18.5 mph /  29.8 km/h 18.5 mph /  29.8 km/h 61 % 0.0 in /  0 mm 348.0 W/m2 CLR
11:03 14.4 °F /  -9.8 °C 6.8 °F /  -14 °C 1029.7 in /  34865.6 hPa NW 22.5 mph /  36.2 km/h 22.5 mph /  36.2 km/h 60 % 0.0 in /  0 mm 359.0 W/m2 CLR
11:08 15.0 °F /  -9.4 °C 7.3 °F /  -13.7 °C 1029.7 in /  34865.6 hPa WNW 4.8 mph /  7.7 km/h 4.8 mph /  7.7 km/h 60 % 0.0 in /  0 mm 369.0 W/m2 CLR
11:13 15.0 °F /  -9.4 °C 7.3 °F /  -13.7 °C 1029.7 in /  34865.6 hPa WNW 27.8 mph /  44.7 km/h 27.8 mph /  44.7 km/h 60 % 0.0 in /  0 mm 378.0 W/m2 CLR
11:18 15.0 °F /  -9.4 °C 7.3 °F /  -13.7 °C 1029.7 in /  34865.6 hPa NNW 22.2 mph /  35.7 km/h 22.2 mph /  35.7 km/h 60 % 0.0 in /  0 mm 385.0 W/m2 CLR
11:23 15.0 °F /  -9.4 °C 7.1 °F /  -13.8 °C 1029.7 in /  34865.6 hPa NNW 27.8 mph /  44.7 km/h 27.8 mph /  44.7 km/h 59 % 0.0 in /  0 mm 394.0 W/m2 CLR
11:28 15.0 °F /  -9.4 °C 7.1 °F /  -13.8 °C 1029.3 in /  34852.1 hPa NNW 35.2 mph /  56.6 km/h 35.2 mph /  56.6 km/h 59 % 0.0 in /  0 mm 397.0 W/m2 CLR
11:33 15.0 °F /  -9.4 °C 7.1 °F /  -13.8 °C 1029.3 in /  34852.1 hPa NNW 32.2 mph /  51.8 km/h 32.2 mph /  51.8 km/h 59 % 0.0 in /  0 mm 410.0 W/m2 CLR
11:38 15.0 °F /  -9.4 °C 7.1 °F /  -13.8 °C 1029.3 in /  34852.1 hPa NNW 38.9 mph /  62.6 km/h 38.9 mph /  62.6 km/h 59 % 0.0 in /  0 mm 417.0 W/m2 CLR
11:43 15.0 °F /  -9.4 °C 7.1 °F /  -13.8 °C 1029.3 in /  34852.1 hPa NNW 33.3 mph /  53.6 km/h 33.3 mph /  53.6 km/h 59 % 0.0 in /  0 mm 424.0 W/m2 CLR
11:48 15.0 °F /  -9.4 °C 6.8 °F /  -14 °C 1029.3 in /  34852.1 hPa NNW 42.6 mph /  68.6 km/h 42.6 mph /  68.6 km/h 58 % 0.0 in /  0 mm 432.0 W/m2 CLR
11:53 15.0 °F /  -9.4 °C 7.1 °F /  -13.8 °C 1029.0 in /  34841.9 hPa NW 37.0 mph /  59.5 km/h 37.0 mph /  59.5 km/h 59 % 0.0 in /  0 mm 439.0 W/m2 CLR
11:58 15.0 °F /  -9.4 °C 7.1 °F /  -13.8 °C 1029.0 in /  34841.9 hPa WNW 38.9 mph /  62.6 km/h 38.9 mph /  62.6 km/h 59 % 0.0 in /  0 mm 445.0 W/m2 CLR
12:03 15.0 °F /  -9.4 °C 7.1 °F /  -13.8 °C 1029.0 in /  34841.9 hPa NW 40.7 mph /  65.5 km/h 40.7 mph /  65.5 km/h 59 % 0.0 in /  0 mm 452.0 W/m2 CLR
12:08 15.6 °F /  -9.1 °C 7.6 °F /  -13.6 °C 1029.0 in /  34841.9 hPa WNW 33.3 mph /  53.6 km/h 33.3 mph /  53.6 km/h 59 % 0.0 in /  0 mm 459.0 W/m2 CLR
12:13 15.0 °F /  -9.4 °C 7.1 °F /  -13.8 °C 1029.0 in /  34841.9 hPa NW 37.0 mph /  59.5 km/h 37.0 mph /  59.5 km/h 59 % 0.0 in /  0 mm 462.0 W/m2 CLR
12:18 15.6 °F /  -9.1 °C 7.3 °F /  -13.7 °C 1029.0 in /  34841.9 hPa NNW 37.0 mph /  59.5 km/h 37.0 mph /  59.5 km/h 58 % 0.0 in /  0 mm 466.0 W/m2 CLR
12:23 15.6 °F /  -9.1 °C 7.3 °F /  -13.7 °C 1029.0 in /  34841.9 hPa NW 33.3 mph /  53.6 km/h 33.3 mph /  53.6 km/h 58 % 0.0 in /  0 mm 469.0 W/m2 CLR
12:28 15.6 °F /  -9.1 °C 7.3 °F /  -13.7 °C 1028.7 in /  34831.8 hPa NW 25.9 mph /  41.7 km/h 25.9 mph /  41.7 km/h 58 % 0.0 in /  0 mm 476.0 W/m2 CLR
12:33 16.1 °F /  -8.8 °C 7.6 °F /  -13.6 °C 1029.0 in /  34841.9 hPa NNW 29.0 mph /  46.7 km/h 29.0 mph /  46.7 km/h 57 % 0.0 in /  0 mm 480.0 W/m2 CLR
12:38 16.1 °F /  -8.8 °C 7.3 °F /  -13.7 °C 1029.0 in /  34841.9 hPa North 37.0 mph /  59.5 km/h 37.0 mph /  59.5 km/h 56 % 0.0 in /  0 mm 482.0 W/m2 CLR
12:43 16.1 °F /  -8.8 °C 7.3 °F /  -13.7 °C 1028.7 in /  34831.8 hPa NW 31.5 mph /  50.7 km/h 31.5 mph /  50.7 km/h 56 % 0.0 in /  0 mm 483.0 W/m2 CLR
12:53 16.1 °F /  -8.8 °C 7.1 °F /  -13.8 °C 1028.7 in /  34831.8 hPa NW 29.6 mph /  47.6 km/h 29.6 mph /  47.6 km/h 55 % 0.0 in /  0 mm 487.0 W/m2 CLR
12:58 16.1 °F /  -8.8 °C 7.3 °F /  -13.7 °C 1028.3 in /  34818.2 hPa NNW 38.9 mph /  62.6 km/h 38.9 mph /  62.6 km/h 56 % 0.0 in /  0 mm 489.0 W/m2 CLR
13:03 16.1 °F /  -8.8 °C 7.1 °F /  -13.8 °C 1028.3 in /  34818.2 hPa NNW 25.9 mph /  41.7 km/h 25.9 mph /  41.7 km/h 55 % 0.0 in /  0 mm 489.0 W/m2 CLR
13:13 16.7 °F /  -8.5 °C 7.3 °F /  -13.7 °C 1028.3 in /  34818.2 hPa NNW 20.9 mph /  33.6 km/h 20.9 mph /  33.6 km/h 54 % 0.0 in /  0 mm 490.0 W/m2 CLR
13:18 16.7 °F /  -8.5 °C 7.3 °F /  -13.7 °C 1028.0 in /  34808.1 hPa WNW 24.1 mph /  38.8 km/h 24.1 mph /  38.8 km/h 54 % 0.0 in /  0 mm 490.0 W/m2 CLR
13:28 17.2 °F /  -8.2 °C 7.3 °F /  -13.7 °C 1028.0 in /  34808.1 hPa NNW 25.7 mph /  41.4 km/h 25.7 mph /  41.4 km/h 52 % 0.0 in /  0 mm 489.0 W/m2 CLR
13:38 17.2 °F /  -8.2 °C 7.3 °F /  -13.7 °C 1028.0 in /  34808.1 hPa NNW 29.6 mph /  47.6 km/h 29.6 mph /  47.6 km/h 52 % 0.0 in /  0 mm 485.0 W/m2 CLR
13:49 16.7 °F /  -8.5 °C 7.3 °F /  -13.7 °C 1028.0 in /  34808.1 hPa NW 20.4 mph /  32.8 km/h 20.4 mph /  32.8 km/h 54 % 0.0 in /  0 mm 483.0 W/m2 CLR
13:54 16.7 °F /  -8.5 °C 7.1 °F /  -13.8 °C 1028.0 in /  34808.1 hPa NW 24.1 mph /  38.8 km/h 24.1 mph /  38.8 km/h 53 % 0.0 in /  0 mm 480.0 W/m2 CLR
13:59 16.7 °F /  -8.5 °C 7.1 °F /  -13.8 °C 1027.7 in /  34797.9 hPa NNW 35.4 mph /  57 km/h 35.4 mph /  57 km/h 53 % 0.0 in /  0 mm 475.0 W/m2 CLR
14:04 16.7 °F /  -8.5 °C 7.3 °F /  -13.7 °C 1027.7 in /  34797.9 hPa NW 31.5 mph /  50.7 km/h 31.5 mph /  50.7 km/h 54 % 0.0 in /  0 mm 471.0 W/m2 CLR
14:14 16.7 °F /  -8.5 °C 7.3 °F /  -13.7 °C 1027.7 in /  34797.9 hPa NW 35.2 mph /  56.6 km/h 35.2 mph /  56.6 km/h 54 % 0.0 in /  0 mm 464.0 W/m2 CLR
14:19 16.7 °F /  -8.5 °C 7.3 °F /  -13.7 °C 1027.7 in /  34797.9 hPa NW 20.4 mph /  32.8 km/h 20.4 mph /  32.8 km/h 54 % 0.0 in /  0 mm 459.0 W/m2 CLR
14:24 16.7 °F /  -8.5 °C 7.6 °F /  -13.6 °C 1027.7 in /  34797.9 hPa NNW 16.7 mph /  26.9 km/h 16.7 mph /  26.9 km/h 55 % 0.0 in /  0 mm 454.0 W/m2 CLR
14:29 16.7 °F /  -8.5 °C 7.6 °F /  -13.6 °C 1027.7 in /  34797.9 hPa NNW 27.8 mph /  44.7 km/h 27.8 mph /  44.7 km/h 55 % 0.0 in /  0 mm 445.0 W/m2 CLR
14:39 16.7 °F /  -8.5 °C 7.6 °F /  -13.6 °C 1027.3 in /  34784.4 hPa NW 27.8 mph /  44.7 km/h 27.8 mph /  44.7 km/h 55 % 0.0 in /  0 mm 431.0 W/m2 CLR
14:44 16.7 °F /  -8.5 °C 7.3 °F /  -13.7 °C 1027.3 in /  34784.4 hPa NW 18.5 mph /  29.8 km/h 18.5 mph /  29.8 km/h 54 % 0.0 in /  0 mm 427.0 W/m2 CLR
14:54 17.2 °F /  -8.2 °C 7.8 °F /  -13.4 °C 1027.3 in /  34784.4 hPa NW 18.5 mph /  29.8 km/h 18.5 mph /  29.8 km/h 54 % 0.0 in /  0 mm 413.0 W/m2 CLR
15:04 17.2 °F /  -8.2 °C 7.8 °F /  -13.4 °C 1027.3 in /  34784.4 hPa NNW 18.5 mph /  29.8 km/h 18.5 mph /  29.8 km/h 54 % 0.0 in /  0 mm 394.0 W/m2 CLR
15:09 17.2 °F /  -8.2 °C 7.6 °F /  -13.6 °C 1027.0 in /  34774.2 hPa WNW 16.7 mph /  26.9 km/h 16.7 mph /  26.9 km/h 53 % 0.0 in /  0 mm 387.0 W/m2 CLR
15:14 17.2 °F /  -8.2 °C 7.8 °F /  -13.4 °C 1027.0 in /  34774.2 hPa NNW 29.6 mph /  47.6 km/h 29.6 mph /  47.6 km/h 54 % 0.0 in /  0 mm 378.0 W/m2 CLR
15:19 17.2 °F /  -8.2 °C 7.3 °F /  -13.7 °C 1027.0 in /  34774.2 hPa NW 33.3 mph /  53.6 km/h 33.3 mph /  53.6 km/h 52 % 0.0 in /  0 mm 371.0 W/m2 CLR
15:34 16.7 °F /  -8.5 °C 6.8 °F /  -14 °C 1027.0 in /  34774.2 hPa WNW 18.5 mph /  29.8 km/h 18.5 mph /  29.8 km/h 52 % 0.0 in /  0 mm 345.0 W/m2 CLR
15:44 16.7 °F /  -8.5 °C 6.8 °F /  -14 °C 1027.0 in /  34774.2 hPa NW 25.9 mph /  41.7 km/h 25.9 mph /  41.7 km/h 52 % 0.0 in /  0 mm 322.0 W/m2 CLR
15:49 16.7 °F /  -8.5 °C 6.5 °F /  -14.2 °C 1027.0 in /  34774.2 hPa North 29.6 mph /  47.6 km/h 29.6 mph /  47.6 km/h 51 % 0.0 in /  0 mm 315.0 W/m2 CLR
15:54 17.2 °F /  -8.2 °C 7.0 °F /  -13.9 °C 1027.0 in /  34774.2 hPa NW 24.1 mph /  38.8 km/h 24.1 mph /  38.8 km/h 51 % 0.0 in /  0 mm 304.0 W/m2 CLR
15:59 16.7 °F /  -8.5 °C 6.5 °F /  -14.2 °C 1027.0 in /  34774.2 hPa NW 25.7 mph /  41.4 km/h 25.7 mph /  41.4 km/h 51 % 0.0 in /  0 mm 294.0 W/m2 CLR
16:04 17.2 °F /  -8.2 °C 7.0 °F /  -13.9 °C 1027.0 in /  34774.2 hPa NW 25.9 mph /  41.7 km/h 25.9 mph /  41.7 km/h 51 % 0.0 in /  0 mm 283.0 W/m2 CLR
16:09 16.7 °F /  -8.5 °C 6.5 °F /  -14.2 °C 1027.0 in /  34774.2 hPa NNW 30.6 mph /  49.2 km/h 30.6 mph /  49.2 km/h 51 % 0.0 in /  0 mm 271.0 W/m2 CLR
16:14 16.7 °F /  -8.5 °C 6.5 °F /  -14.2 °C 1027.0 in /  34774.2 hPa NNW 37.0 mph /  59.5 km/h 37.0 mph /  59.5 km/h 51 % 0.0 in /  0 mm 262.0 W/m2 CLR
16:19 16.7 °F /  -8.5 °C 6.5 °F /  -14.2 °C 1027.0 in /  34774.2 hPa NW 33.3 mph /  53.6 km/h 33.3 mph /  53.6 km/h 51 % 0.0 in /  0 mm 251.0 W/m2 CLR
16:24 16.7 °F /  -8.5 °C 6.5 °F /  -14.2 °C 1027.0 in /  34774.2 hPa NNW 29.6 mph /  47.6 km/h 29.6 mph /  47.6 km/h 51 % 0.0 in /  0 mm 241.0 W/m2 CLR
16:29 16.7 °F /  -8.5 °C 6.5 °F /  -14.2 °C 1027.0 in /  34774.2 hPa NNW 42.6 mph /  68.6 km/h 42.6 mph /  68.6 km/h 51 % 0.0 in /  0 mm 229.0 W/m2 CLR
16:34 16.1 °F /  -8.8 °C 5.9 °F /  -14.5 °C 1027.0 in /  34774.2 hPa NW 48.1 mph /  77.4 km/h 48.1 mph /  77.4 km/h 51 % 0.0 in /  0 mm 211.0 W/m2 CLR
16:39 16.1 °F /  -8.8 °C 5.9 °F /  -14.5 °C 1027.0 in /  34774.2 hPa NNW 37.0 mph /  59.5 km/h 37.0 mph /  59.5 km/h 51 % 0.0 in /  0 mm 195.0 W/m2 CLR
16:44 16.1 °F /  -8.8 °C 5.9 °F /  -14.5 °C 1027.0 in /  34774.2 hPa NNW 42.6 mph /  68.6 km/h 42.6 mph /  68.6 km/h 51 % 0.0 in /  0 mm 172.0 W/m2 CLR
16:49 16.1 °F /  -8.8 °C 5.9 °F /  -14.5 °C 1027.0 in /  34774.2 hPa NNW 42.6 mph /  68.6 km/h 42.6 mph /  68.6 km/h 51 % 0.0 in /  0 mm 153.0 W/m2 CLR
16:54 16.1 °F /  -8.8 °C 5.9 °F /  -14.5 °C 1027.3 in /  34784.4 hPa North 48.1 mph /  77.4 km/h 48.1 mph /  77.4 km/h 51 % 0.0 in /  0 mm 135.0 W/m2 CLR
16:59 16.1 °F /  -8.8 °C 6.2 °F /  -14.3 °C 1027.0 in /  34774.2 hPa NNW 33.3 mph /  53.6 km/h 33.3 mph /  53.6 km/h 52 % 0.0 in /  0 mm 118.0 W/m2 CLR
17:04 16.1 °F /  -8.8 °C 6.2 °F /  -14.3 °C 1027.3 in /  34784.4 hPa NNW 38.9 mph /  62.6 km/h 38.9 mph /  62.6 km/h 52 % 0.0 in /  0 mm 114.0 W/m2 CLR
17:09 16.1 °F /  -8.8 °C 6.2 °F /  -14.3 °C 1027.3 in /  34784.4 hPa NNW 37.0 mph /  59.5 km/h 37.0 mph /  59.5 km/h 52 % 0.0 in /  0 mm 91.0 W/m2 CLR
17:14 16.1 °F /  -8.8 °C 6.2 °F /  -14.3 °C 1027.3 in /  34784.4 hPa NNW 40.7 mph /  65.5 km/h 40.7 mph /  65.5 km/h 52 % 0.0 in /  0 mm 86.0 W/m2 CLR
17:19 15.6 °F /  -9.1 °C 5.7 °F /  -14.6 °C 1027.3 in /  34784.4 hPa NNW 45.1 mph /  72.6 km/h 45.1 mph /  72.6 km/h 52 % 0.0 in /  0 mm 77.0 W/m2 FEW
17:24 15.6 °F /  -9.1 °C 5.7 °F /  -14.6 °C 1027.3 in /  34784.4 hPa NW 31.5 mph /  50.7 km/h 31.5 mph /  50.7 km/h 52 % 0.0 in /  0 mm 62.0 W/m2 SCT
17:29 15.6 °F /  -9.1 °C 5.7 °F /  -14.6 °C 1027.3 in /  34784.4 hPa NW 42.6 mph /  68.6 km/h 42.6 mph /  68.6 km/h 52 % 0.0 in /  0 mm 47.0 W/m2 SCT
17:34 15.6 °F /  -9.1 °C 6.0 °F /  -14.4 °C 1027.3 in /  34784.4 hPa NNW 42.6 mph /  68.6 km/h 42.6 mph /  68.6 km/h 53 % 0.0 in /  0 mm 39.0 W/m2 BKN
17:39 15.6 °F /  -9.1 °C 6.0 °F /  -14.4 °C 1027.3 in /  34784.4 hPa NNW 42.6 mph /  68.6 km/h 42.6 mph /  68.6 km/h 53 % 0.0 in /  0 mm 28.0 W/m2 BKN
17:44 15.0 °F /  -9.4 °C 5.8 °F /  -14.6 °C 1027.3 in /  34784.4 hPa NW 31.5 mph /  50.7 km/h 31.5 mph /  50.7 km/h 54 % 0.0 in /  0 mm 21.0 W/m2 BKN
17:49 15.0 °F /  -9.4 °C 6.0 °F /  -14.4 °C 1027.3 in /  34784.4 hPa NNW 50.0 mph /  80.5 km/h 50.0 mph /  80.5 km/h 55 % 0.0 in /  0 mm 16.0 W/m2 BKN
17:54 15.0 °F /  -9.4 °C 6.3 °F /  -14.3 °C 1027.3 in /  34784.4 hPa NW 35.2 mph /  56.6 km/h 35.2 mph /  56.6 km/h 56 % 0.0 in /  0 mm 11.0 W/m2 BKN
17:59 15.0 °F /  -9.4 °C 6.6 °F /  -14.1 °C 1027.3 in /  34784.4 hPa NNW 42.6 mph /  68.6 km/h 42.6 mph /  68.6 km/h 57 % 0.0 in /  0 mm 9.0 W/m2 BKN
18:04 14.4 °F /  -9.8 °C 6.3 °F /  -14.3 °C 1027.3 in /  34784.4 hPa NNW 40.7 mph /  65.5 km/h 40.7 mph /  65.5 km/h 58 % 0.0 in /  0 mm 5.0 W/m2 OVC
18:09 14.4 °F /  -9.8 °C 6.3 °F /  -14.3 °C 1027.3 in /  34784.4 hPa North 43.4 mph /  69.8 km/h 43.4 mph /  69.8 km/h 58 % 0.0 in /  0 mm 0.0 W/m2 OVC
18:14 14.4 °F /  -9.8 °C 6.3 °F /  -14.3 °C 1027.7 in /  34797.9 hPa North 42.6 mph /  68.6 km/h 42.6 mph /  68.6 km/h 58 % 0.0 in /  0 mm 0.0 W/m2 CLR
18:19 14.4 °F /  -9.8 °C 6.5 °F /  -14.2 °C 1027.3 in /  34784.4 hPa NW 40.2 mph /  64.7 km/h 40.2 mph /  64.7 km/h 59 % 0.0 in /  0 mm 0.0 W/m2 CLR
18:24 14.4 °F /  -9.8 °C 6.5 °F /  -14.2 °C 1027.7 in /  34797.9 hPa NW 40.7 mph /  65.5 km/h 40.7 mph /  65.5 km/h 59 % 0.0 in /  0 mm 0.0 W/m2 CLR
18:29 13.9 °F /  -10.1 °C 6.0 °F /  -14.4 °C 1027.7 in /  34797.9 hPa NW 40.7 mph /  65.5 km/h 40.7 mph /  65.5 km/h 59 % 0.0 in /  0 mm 0.0 W/m2 CLR
18:34 13.9 °F /  -10.1 °C 6.2 °F /  -14.3 °C 1027.7 in /  34797.9 hPa NNW 40.7 mph /  65.5 km/h 40.7 mph /  65.5 km/h 60 % 0.0 in /  0 mm 0.0 W/m2 CLR
18:39 13.9 °F /  -10.1 °C 6.5 °F /  -14.2 °C 1027.7 in /  34797.9 hPa NNW 40.7 mph /  65.5 km/h 40.7 mph /  65.5 km/h 61 % 0.0 in /  0 mm 0.0 W/m2 CLR
18:44 13.9 °F /  -10.1 °C 6.5 °F /  -14.2 °C 1028.0 in /  34808.1 hPa NNW 37.0 mph /  59.5 km/h 37.0 mph /  59.5 km/h 61 % 0.0 in /  0 mm 0.0 W/m2 CLR
18:49 13.9 °F /  -10.1 °C 6.5 °F /  -14.2 °C 1028.0 in /  34808.1 hPa NW 35.2 mph /  56.6 km/h 35.2 mph /  56.6 km/h 61 % 0.0 in /  0 mm 0.0 W/m2 CLR
18:54 13.9 °F /  -10.1 °C 6.5 °F /  -14.2 °C 1028.0 in /  34808.1 hPa NW 33.3 mph /  53.6 km/h 33.3 mph /  53.6 km/h 61 % 0.0 in /  0 mm 0.0 W/m2 CLR
18:59 13.9 °F /  -10.1 °C 6.5 °F /  -14.2 °C 1028.0 in /  34808.1 hPa NW 31.5 mph /  50.7 km/h 31.5 mph /  50.7 km/h 61 % 0.0 in /  0 mm 0.0 W/m2 CLR
19:04 13.9 °F /  -10.1 °C 6.5 °F /  -14.2 °C 1028.0 in /  34808.1 hPa NW 40.7 mph /  65.5 km/h 40.7 mph /  65.5 km/h 61 % 0.0 in /  0 mm 0.0 W/m2 CLR
19:09 13.9 °F /  -10.1 °C 6.7 °F /  -14.1 °C 1028.0 in /  34808.1 hPa North 35.2 mph /  56.6 km/h 35.2 mph /  56.6 km/h 62 % 0.0 in /  0 mm 0.0 W/m2 CLR
19:14 13.9 °F /  -10.1 °C 6.9 °F /  -13.9 °C 1028.0 in /  34808.1 hPa NW 40.7 mph /  65.5 km/h 40.7 mph /  65.5 km/h 63 % 0.0 in /  0 mm 0.0 W/m2 CLR
19:20 13.9 °F /  -10.1 °C 6.9 °F /  -13.9 °C 1028.0 in /  34808.1 hPa NNW 37.0 mph /  59.5 km/h 37.0 mph /  59.5 km/h 63 % 0.0 in /  0 mm 0.0 W/m2 CLR
19:25 13.9 °F /  -10.1 °C 6.9 °F /  -13.9 °C 1028.0 in /  34808.1 hPa NNW 40.7 mph /  65.5 km/h 40.7 mph /  65.5 km/h 63 % 0.0 in /  0 mm 0.0 W/m2 CLR
19:30 13.9 °F /  -10.1 °C 7.2 °F /  -13.8 °C 1028.0 in /  34808.1 hPa NW 45.1 mph /  72.6 km/h 45.1 mph /  72.6 km/h 64 % 0.0 in /  0 mm 0.0 W/m2 CLR
19:35 13.9 °F /  -10.1 °C 7.2 °F /  -13.8 °C 1028.0 in /  34808.1 hPa NNW 38.9 mph /  62.6 km/h 38.9 mph /  62.6 km/h 64 % 0.0 in /  0 mm 0.0 W/m2 CLR
19:40 13.9 °F /  -10.1 °C 7.2 °F /  -13.8 °C 1028.3 in /  34818.2 hPa NW 31.5 mph /  50.7 km/h 31.5 mph /  50.7 km/h 64 % 0.0 in /  0 mm 0.0 W/m2 CLR
19:45 13.9 °F /  -10.1 °C 7.2 °F /  -13.8 °C 1028.0 in /  34808.1 hPa NW 37.0 mph /  59.5 km/h 37.0 mph /  59.5 km/h 64 % 0.0 in /  0 mm 0.0 W/m2 CLR
19:50 13.9 °F /  -10.1 °C 7.2 °F /  -13.8 °C 1028.0 in /  34808.1 hPa NW 37.0 mph /  59.5 km/h 37.0 mph /  59.5 km/h 64 % 0.0 in /  0 mm 0.0 W/m2 CLR
19:55 13.9 °F /  -10.1 °C 7.4 °F /  -13.7 °C 1028.0 in /  34808.1 hPa NW 37.0 mph /  59.5 km/h 37.0 mph /  59.5 km/h 65 % 0.0 in /  0 mm 0.0 W/m2 CLR
20:00 13.9 °F /  -10.1 °C 7.4 °F /  -13.7 °C 1028.0 in /  34808.1 hPa NW 33.3 mph /  53.6 km/h 33.3 mph /  53.6 km/h 65 % 0.0 in /  0 mm 0.0 W/m2 CLR
20:05 13.9 °F /  -10.1 °C 7.4 °F /  -13.7 °C 1027.7 in /  34797.9 hPa NW 50.0 mph /  80.5 km/h 50.0 mph /  80.5 km/h 65 % 0.0 in /  0 mm 0.0 W/m2 CLR
20:10 13.9 °F /  -10.1 °C 7.4 °F /  -13.7 °C 1027.7 in /  34797.9 hPa NW 38.9 mph /  62.6 km/h 38.9 mph /  62.6 km/h 65 % 0.0 in /  0 mm 0.0 W/m2 CLR
20:15 13.9 °F /  -10.1 °C 7.4 °F /  -13.7 °C 1027.7 in /  34797.9 hPa NW 45.1 mph /  72.6 km/h 45.1 mph /  72.6 km/h 65 % 0.0 in /  0 mm 0.0 W/m2 CLR
20:20 13.9 °F /  -10.1 °C 7.4 °F /  -13.7 °C 1028.0 in /  34808.1 hPa NNW 42.6 mph /  68.6 km/h 42.6 mph /  68.6 km/h 65 % 0.0 in /  0 mm 0.0 W/m2 CLR
20:25 13.9 °F /  -10.1 °C 7.6 °F /  -13.6 °C 1028.0 in /  34808.1 hPa NW 48.1 mph /  77.4 km/h 48.1 mph /  77.4 km/h 66 % 0.0 in /  0 mm 0.0 W/m2 CLR
20:30 13.9 °F /  -10.1 °C 7.6 °F /  -13.6 °C 1028.0 in /  34808.1 hPa NNW 42.6 mph /  68.6 km/h 42.6 mph /  68.6 km/h 66 % 0.0 in /  0 mm 0.0 W/m2 CLR
20:35 13.9 °F /  -10.1 °C 7.6 °F /  -13.6 °C 1028.3 in /  34818.2 hPa NNW 48.3 mph /  77.7 km/h 48.3 mph /  77.7 km/h 66 % 0.0 in /  0 mm 0.0 W/m2 CLR
20:40 13.9 °F /  -10.1 °C 7.8 °F /  -13.4 °C 1028.3 in /  34818.2 hPa NW 35.4 mph /  57 km/h 35.4 mph /  57 km/h 67 % 0.0 in /  0 mm 0.0 W/m2 CLR
20:45 13.9 °F /  -10.1 °C 7.8 °F /  -13.4 °C 1028.3 in /  34818.2 hPa NW 40.7 mph /  65.5 km/h 40.7 mph /  65.5 km/h 67 % 0.0 in /  0 mm 0.0 W/m2 CLR
20:50 13.9 °F /  -10.1 °C 7.8 °F /  -13.4 °C 1028.0 in /  34808.1 hPa NW 46.3 mph /  74.5 km/h 46.3 mph /  74.5 km/h 67 % 0.0 in /  0 mm 0.0 W/m2 CLR
20:55 13.9 °F /  -10.1 °C 7.8 °F /  -13.4 °C 1028.3 in /  34818.2 hPa NW 48.1 mph /  77.4 km/h 48.1 mph /  77.4 km/h 67 % 0.0 in /  0 mm 0.0 W/m2 CLR
21:00 13.9 °F /  -10.1 °C 8.1 °F /  -13.3 °C 1028.3 in /  34818.2 hPa NW 35.2 mph /  56.6 km/h 35.2 mph /  56.6 km/h 68 % 0.0 in /  0 mm 0.0 W/m2 CLR
21:05 13.9 °F /  -10.1 °C 8.1 °F /  -13.3 °C 1028.3 in /  34818.2 hPa NW 40.7 mph /  65.5 km/h 40.7 mph /  65.5 km/h 68 % 0.0 in /  0 mm 0.0 W/m2 CLR
21:10 13.9 °F /  -10.1 °C 8.1 °F /  -13.3 °C 1028.0 in /  34808.1 hPa NW 50.0 mph /  80.5 km/h 50.0 mph /  80.5 km/h 68 % 0.0 in /  0 mm 0.0 W/m2 CLR
21:15 13.9 °F /  -10.1 °C 8.1 °F /  -13.3 °C 1028.0 in /  34808.1 hPa NW 43.4 mph /  69.8 km/h 43.4 mph /  69.8 km/h 68 % 0.0 in /  0 mm 0.0 W/m2 CLR
21:20 13.9 °F /  -10.1 °C 8.1 °F /  -13.3 °C 1028.0 in /  34808.1 hPa NW 51.8 mph /  83.4 km/h 51.8 mph /  83.4 km/h 68 % 0.0 in /  0 mm 0.0 W/m2 CLR
21:25 13.9 °F /  -10.1 °C 8.1 °F /  -13.3 °C 1028.0 in /  34808.1 hPa NW 42.6 mph /  68.6 km/h 42.6 mph /  68.6 km/h 68 % 0.0 in /  0 mm 0.0 W/m2 CLR
21:30 13.9 °F /  -10.1 °C 8.1 °F /  -13.3 °C 1028.0 in /  34808.1 hPa NW 48.1 mph /  77.4 km/h 48.1 mph /  77.4 km/h 68 % 0.0 in /  0 mm 0.0 W/m2 CLR
21:35 13.9 °F /  -10.1 °C 8.1 °F /  -13.3 °C 1028.3 in /  34818.2 hPa NW 37.0 mph /  59.5 km/h 37.0 mph /  59.5 km/h 68 % 0.0 in /  0 mm 0.0 W/m2 CLR
21:40 13.9 °F /  -10.1 °C 8.3 °F /  -13.2 °C 1028.3 in /  34818.2 hPa NW 44.4 mph /  71.5 km/h 44.4 mph /  71.5 km/h 69 % 0.0 in /  0 mm 0.0 W/m2 CLR
21:45 13.9 °F /  -10.1 °C 8.3 °F /  -13.2 °C 1028.3 in /  34818.2 hPa NW 42.6 mph /  68.6 km/h 42.6 mph /  68.6 km/h 69 % 0.0 in /  0 mm 0.0 W/m2 CLR
21:50 13.3 °F /  -10.4 °C 7.8 °F /  -13.4 °C 1028.3 in /  34818.2 hPa NW 40.7 mph /  65.5 km/h 40.7 mph /  65.5 km/h 69 % 0.0 in /  0 mm 0.0 W/m2 CLR
21:55 13.3 °F /  -10.4 °C 7.8 °F /  -13.4 °C 1028.3 in /  34818.2 hPa NW 48.1 mph /  77.4 km/h 48.1 mph /  77.4 km/h 69 % 0.0 in /  0 mm 0.0 W/m2 CLR
22:00 13.3 °F /  -10.4 °C 7.8 °F /  -13.4 °C 1028.3 in /  34818.2 hPa NW 35.2 mph /  56.6 km/h 35.2 mph /  56.6 km/h 69 % 0.0 in /  0 mm 0.0 W/m2 CLR
22:05 13.3 °F /  -10.4 °C 7.8 °F /  -13.4 °C 1028.3 in /  34818.2 hPa NW 40.7 mph /  65.5 km/h 40.7 mph /  65.5 km/h 69 % 0.0 in /  0 mm 0.0 W/m2 CLR
22:10 13.3 °F /  -10.4 °C 8.0 °F /  -13.3 °C 1028.3 in /  34818.2 hPa NW 38.9 mph /  62.6 km/h 38.9 mph /  62.6 km/h 70 % 0.0 in /  0 mm 0.0 W/m2 CLR
22:15 13.3 °F /  -10.4 °C 8.0 °F /  -13.3 °C 1028.3 in /  34818.2 hPa NNW 33.3 mph /  53.6 km/h 33.3 mph /  53.6 km/h 70 % 0.0 in /  0 mm 0.0 W/m2 CLR
22:20 13.3 °F /  -10.4 °C 8.0 °F /  -13.3 °C 1028.3 in /  34818.2 hPa NW 42.6 mph /  68.6 km/h 42.6 mph /  68.6 km/h 70 % 0.0 in /  0 mm 0.0 W/m2 CLR
22:25 13.3 °F /  -10.4 °C 8.0 °F /  -13.3 °C 1028.3 in /  34818.2 hPa NW 42.6 mph /  68.6 km/h 42.6 mph /  68.6 km/h 70 % 0.0 in /  0 mm 0.0 W/m2 CLR
22:30 13.3 °F /  -10.4 °C 8.0 °F /  -13.3 °C 1028.3 in /  34818.2 hPa NW 42.6 mph /  68.6 km/h 42.6 mph /  68.6 km/h 70 % 0.0 in /  0 mm 0.0 W/m2 CLR
22:35 13.3 °F /  -10.4 °C 8.0 °F /  -13.3 °C 1028.3 in /  34818.2 hPa NW 40.2 mph /  64.7 km/h 40.2 mph /  64.7 km/h 70 % 0.0 in /  0 mm 0.0 W/m2 CLR
22:40 13.3 °F /  -10.4 °C 8.0 °F /  -13.3 °C 1028.7 in /  34831.8 hPa WNW 42.6 mph /  68.6 km/h 42.6 mph /  68.6 km/h 70 % 0.0 in /  0 mm 0.0 W/m2 CLR
22:45 13.3 °F /  -10.4 °C 8.0 °F /  -13.3 °C 1028.3 in /  34818.2 hPa NW 42.6 mph /  68.6 km/h 42.6 mph /  68.6 km/h 70 % 0.0 in /  0 mm 0.0 W/m2 CLR
22:50 13.3 °F /  -10.4 °C 8.0 °F /  -13.3 °C 1028.7 in /  34831.8 hPa NW 40.7 mph /  65.5 km/h 40.7 mph /  65.5 km/h 70 % 0.0 in /  0 mm 0.0 W/m2 CLR
22:55 13.3 °F /  -10.4 °C 8.0 °F /  -13.3 °C 1029.0 in /  34841.9 hPa NW 33.8 mph /  54.4 km/h 33.8 mph /  54.4 km/h 70 % 0.0 in /  0 mm 0.0 W/m2 CLR
23:00 13.3 °F /  -10.4 °C 8.0 °F /  -13.3 °C 1028.7 in /  34831.8 hPa NW 38.6 mph /  62.1 km/h 38.6 mph /  62.1 km/h 70 % 0.0 in /  0 mm 0.0 W/m2 CLR
23:05 13.3 °F /  -10.4 °C 8.2 °F /  -13.2 °C 1028.7 in /  34831.8 hPa NW 37.0 mph /  59.5 km/h 37.0 mph /  59.5 km/h 71 % 0.0 in /  0 mm 0.0 W/m2 CLR
23:10 13.3 °F /  -10.4 °C 8.2 °F /  -13.2 °C 1028.7 in /  34831.8 hPa NW 37.0 mph /  59.5 km/h 37.0 mph /  59.5 km/h 71 % 0.0 in /  0 mm 0.0 W/m2 CLR
23:15 13.3 °F /  -10.4 °C 8.2 °F /  -13.2 °C 1028.7 in /  34831.8 hPa NW 40.7 mph /  65.5 km/h 40.7 mph /  65.5 km/h 71 % 0.0 in /  0 mm 0.0 W/m2 CLR
23:20 13.3 °F /  -10.4 °C 8.2 °F /  -13.2 °C 1028.7 in /  34831.8 hPa NNW 44.4 mph /  71.5 km/h 44.4 mph /  71.5 km/h 71 % 0.0 in /  0 mm 0.0 W/m2 CLR
23:25 13.3 °F /  -10.4 °C 8.2 °F /  -13.2 °C 1028.7 in /  34831.8 hPa NW 38.9 mph /  62.6 km/h 38.9 mph /  62.6 km/h 71 % 0.0 in /  0 mm 0.0 W/m2 CLR
23:30 13.3 °F /  -10.4 °C 8.2 °F /  -13.2 °C 1028.7 in /  34831.8 hPa NW 37.0 mph /  59.5 km/h 37.0 mph /  59.5 km/h 71 % 0.0 in /  0 mm 0.0 W/m2 CLR
23:35 13.3 °F /  -10.4 °C 8.2 °F /  -13.2 °C 1029.0 in /  34841.9 hPa NW 29.6 mph /  47.6 km/h 29.6 mph /  47.6 km/h 71 % 0.0 in /  0 mm 0.0 W/m2 CLR
23:40 13.3 °F /  -10.4 °C 8.2 °F /  -13.2 °C 1029.0 in /  34841.9 hPa NW 32.2 mph /  51.8 km/h 32.2 mph /  51.8 km/h 71 % 0.0 in /  0 mm 0.0 W/m2 CLR
23:45 13.3 °F /  -10.4 °C 8.2 °F /  -13.2 °C 1029.0 in /  34841.9 hPa NW 37.0 mph /  59.5 km/h 37.0 mph /  59.5 km/h 71 % 0.0 in /  0 mm 0.0 W/m2 CLR
23:50 13.3 °F /  -10.4 °C 8.2 °F /  -13.2 °C 1029.0 in /  34841.9 hPa NW 27.8 mph /  44.7 km/h 27.8 mph /  44.7 km/h 71 % 0.0 in /  0 mm 0.0 W/m2 CLR
23:55 13.3 °F /  -10.4 °C 8.0 °F /  -13.3 °C 1029.0 in /  34841.9 hPa NW 31.5 mph /  50.7 km/h 31.5 mph /  50.7 km/h 70 % 0.0 in /  0 mm 0.0 W/m2 CLR
Lo Temps de Massalio
Compliments of Weather Underground - 1 mb